Terminal Aerodrome Forecast
Issued by NWS

Home | Current Version | Previous Version | Text Only | Print | Product List | Glossary On
Versions: 1 2 3 4 5 6 7 8 9 10 11 12 13
731
FTUS42 TJSJ 241149 RRA
TAFNCM
TAF
TNCM 241149Z 2412/2512 12009KT P6SM FEW018
     FM241400 13012KT P6SM VCSH SCT021 SCT040
     FM242300 12010KT P6SM SCT018 SCT035=

USA.gov is the U.S. government's official web portal to all federal, state and local government web resources and services.